Time;durP1;ratioP1;P1;durP2;ratioP2;P2;SDS_P1;SDS_P2;PMS_P1;PMS_P2;Temp;Humidity;BMP_temperature;BMP_pressure;BME280_temperature;BME280_humidity;BME280_pressure;Samples;Min_cycle;Max_cycle;Signal;HPM_P1;HPM_P2
2020/06/20 12:56:28;;;;;;;3.25;2.95;;;;;;;18.19;93.38281;95691.53;;;;
2020/06/20 13:01:22;;;;;;;3.25;2.95;;;;;;;18.19;93.38281;95691.53;;;;
2020/06/20 13:45:45;;;;;;;2.4;2.2;;;;;;;18.29;96.52246;95672;;;;
2020/06/20 14:06:00;;;;;;;2.15;2;;;;;;;19.14;95.91211;95672.39;;;;
2020/06/20 14:09:59;;;;;;;2.35;2.15;;;;;;;19.78;95.66113;95673.6;;;;
2020/06/20 14:18:45;;;;;;;2.5;2.3;;;;;;;20.31;95.75195;95678.69;;;;
2020/06/20 14:19:46;;;;;;;2.5;2.3;;;;;;;20.31;95.75195;95678.69;;;;
2020/06/20 14:20:46;;;;;;;2.5;2.3;;;;;;;20.31;95.75195;95678.69;;;;
2020/06/20 14:21:46;;;;;;;2.5;2.3;;;;;;;20.31;95.75195;95678.69;;;;
2020/06/20 14:22:47;;;;;;;2.5;2.3;;;;;;;20.31;95.75195;95678.69;;;;
2020/06/20 14:23:47;;;;;;;2.5;2.3;;;;;;;20.31;95.75195;95678.69;;;;
2020/06/20 14:24:48;;;;;;;2.5;2.3;;;;;;;20.31;95.75195;95678.69;;;;
2020/06/20 14:25:48;;;;;;;2.5;2.3;;;;;;;20.31;95.75195;95678.69;;;;
2020/06/20 14:26:49;;;;;;;2.5;2.3;;;;;;;20.31;95.75195;95678.69;;;;
2020/06/20 14:27:49;;;;;;;2.5;2.3;;;;;;;20.31;95.75195;95678.69;;;;
2020/06/20 14:28:50;;;;;;;2.25;2.1;;;;;;;20.94;95.19043;95677.54;;;;
2020/06/20 14:29:50;;;;;;;2.25;2.1;;;;;;;20.94;95.19043;95677.54;;;;
2020/06/20 14:30:50;;;;;;;2.25;2.1;;;;;;;20.94;95.19043;95677.54;;;;
2020/06/20 14:31:51;;;;;;;2.25;2.1;;;;;;;20.94;95.19043;95677.54;;;;
2020/06/20 14:32:51;;;;;;;2.25;2.1;;;;;;;20.94;95.19043;95677.54;;;;
2020/06/20 14:33:52;;;;;;;2.25;2.1;;;;;;;20.94;95.19043;95677.54;;;;
2020/06/20 14:34:52;;;;;;;2.25;2.1;;;;;;;20.94;95.19043;95677.54;;;;
2020/06/20 14:35:53;;;;;;;2.25;2.1;;;;;;;20.94;95.19043;95677.54;;;;
2020/06/20 14:36:54;;;;;;;2.25;2.1;;;;;;;20.94;95.19043;95677.54;;;;
2020/06/20 14:37:54;;;;;;;2.25;2.1;;;;;;;20.94;95.19043;95677.54;;;;
2020/06/20 14:38:55;;;;;;;2.15;2.05;;;;;;;20.54;95.37793;95685.21;;;;
2020/06/20 14:39:55;;;;;;;2.15;2.05;;;;;;;20.54;95.37793;95685.21;;;;
2020/06/20 14:40:56;;;;;;;2.15;2.05;;;;;;;20.54;95.37793;95685.21;;;;
2020/06/20 14:41:56;;;;;;;2.15;2.05;;;;;;;20.54;95.37793;95685.21;;;;
2020/06/20 14:42:57;;;;;;;2.15;2.05;;;;;;;20.54;95.37793;95685.21;;;;
2020/06/20 14:43:58;;;;;;;2.15;2.05;;;;;;;20.54;95.37793;95685.21;;;;
2020/06/20 14:44:58;;;;;;;2.15;2.05;;;;;;;20.54;95.37793;95685.21;;;;
2020/06/20 14:45:58;;;;;;;2.15;2.05;;;;;;;20.54;95.37793;95685.21;;;;
2020/06/20 14:46:59;;;;;;;2.15;2.05;;;;;;;20.54;95.37793;95685.21;;;;
2020/06/20 14:47:59;;;;;;;2.15;2.05;;;;;;;20.54;95.37793;95685.21;;;;
2020/06/20 14:49:00;;;;;;;2.15;2.05;;;;;;;20.54;95.37793;95685.21;;;;
2020/06/20 14:50:00;;;;;;;2.150001;2;;;;;;;19.97;95.75488;95677.28;;;;
2020/06/20 14:51:01;;;;;;;2.150001;2;;;;;;;19.97;95.75488;95677.28;;;;
2020/06/20 14:52:01;;;;;;;2.150001;2;;;;;;;19.97;95.75488;95677.28;;;;
2020/06/20 14:53:02;;;;;;;2.150001;2;;;;;;;19.97;95.75488;95677.28;;;;
2020/06/20 14:54:02;;;;;;;2.150001;2;;;;;;;19.97;95.75488;95677.28;;;;
2020/06/20 14:55:03;;;;;;;2.150001;2;;;;;;;19.97;95.75488;95677.28;;;;
2020/06/20 14:56:03;;;;;;;2.150001;2;;;;;;;19.97;95.75488;95677.28;;;;
2020/06/20 14:57:04;;;;;;;2.150001;2;;;;;;;19.97;95.75488;95677.28;;;;
2020/06/20 14:58:04;;;;;;;2.150001;2;;;;;;;19.97;95.75488;95677.28;;;;
2020/06/20 14:59:05;;;;;;;2.150001;2;;;;;;;19.97;95.75488;95677.28;;;;
2020/06/20 15:00:05;;;;;;;2.9;2.7;;;;;;;19.36;96.55762;95672.85;;;;
2020/06/20 15:01:06;;;;;;;2.9;2.7;;;;;;;19.36;96.55762;95672.85;;;;
2020/06/20 15:02:06;;;;;;;2.9;2.7;;;;;;;19.36;96.55762;95672.85;;;;
2020/06/20 15:03:07;;;;;;;2.9;2.7;;;;;;;19.36;96.55762;95672.85;;;;
2020/06/20 15:04:07;;;;;;;2.9;2.7;;;;;;;19.36;96.55762;95672.85;;;;
2020/06/20 15:05:08;;;;;;;2.9;2.7;;;;;;;19.36;96.55762;95672.85;;;;
2020/06/20 15:06:09;;;;;;;2.9;2.7;;;;;;;19.36;96.55762;95672.85;;;;
2020/06/20 15:07:10;;;;;;;2.9;2.7;;;;;;;19.36;96.55762;95672.85;;;;
2020/06/20 15:08:11;;;;;;;2.9;2.7;;;;;;;19.36;96.55762;95672.85;;;;
2020/06/20 15:09:11;;;;;;;2.9;2.7;;;;;;;19.36;96.55762;95672.85;;;;
2020/06/20 15:10:12;;;;;;;2.9;2.7;;;;;;;19.36;96.55762;95672.85;;;;
2020/06/20 15:11:12;;;;;;;2.55;2.35;;;;;;;19.15;97.74805;95656.22;;;;
2020/06/20 15:12:13;;;;;;;2.55;2.35;;;;;;;19.15;97.74805;95656.22;;;;
2020/06/20 15:13:13;;;;;;;2.55;2.35;;;;;;;19.15;97.74805;95656.22;;;;
2020/06/20 15:14:14;;;;;;;2.55;2.35;;;;;;;19.15;97.74805;95656.22;;;;
2020/06/20 15:15:14;;;;;;;2.55;2.35;;;;;;;19.15;97.74805;95656.22;;;;
2020/06/20 15:16:15;;;;;;;2.55;2.35;;;;;;;19.15;97.74805;95656.22;;;;
2020/06/20 15:17:15;;;;;;;2.55;2.35;;;;;;;19.15;97.74805;95656.22;;;;
2020/06/20 15:18:15;;;;;;;2.55;2.35;;;;;;;19.15;97.74805;95656.22;;;;
2020/06/20 15:19:16;;;;;;;2.55;2.35;;;;;;;19.15;97.74805;95656.22;;;;
2020/06/20 15:20:16;;;;;;;2.55;2.35;;;;;;;19.15;97.74805;95656.22;;;;
2020/06/20 15:21:17;;;;;;;2.7;2.5;;;;;;;19.02;97.70801;95667.63;;;;
2020/06/20 15:22:17;;;;;;;2.7;2.5;;;;;;;19.02;97.70801;95667.63;;;;
2020/06/20 15:23:18;;;;;;;2.7;2.5;;;;;;;19.02;97.70801;95667.63;;;;
2020/06/20 15:24:19;;;;;;;2.7;2.5;;;;;;;19.02;97.70801;95667.63;;;;
2020/06/20 15:25:19;;;;;;;2.7;2.5;;;;;;;19.02;97.70801;95667.63;;;;
2020/06/20 15:26:20;;;;;;;2.7;2.5;;;;;;;19.02;97.70801;95667.63;;;;
2020/06/20 15:27:20;;;;;;;2.7;2.5;;;;;;;19.02;97.70801;95667.63;;;;
2020/06/20 15:28:21;;;;;;;2.7;2.5;;;;;;;19.02;97.70801;95667.63;;;;
2020/06/20 15:29:21;;;;;;;2.7;2.5;;;;;;;19.02;97.70801;95667.63;;;;
2020/06/20 15:30:22;;;;;;;2.7;2.5;;;;;;;19.02;97.70801;95667.63;;;;
2020/06/20 15:31:22;;;;;;;2.7;2.5;;;;;;;19.02;97.70801;95667.63;;;;
2020/06/20 15:32:22;;;;;;;3.5;3.25;;;;;;;18.88;98.21875;95663.03;;;;
2020/06/20 15:33:23;;;;;;;3.5;3.25;;;;;;;18.88;98.21875;95663.03;;;;
2020/06/20 15:34:23;;;;;;;3.5;3.25;;;;;;;18.88;98.21875;95663.03;;;;
2020/06/20 15:35:24;;;;;;;3.5;3.25;;;;;;;18.88;98.21875;95663.03;;;;
2020/06/20 15:36:24;;;;;;;3.5;3.25;;;;;;;18.88;98.21875;95663.03;;;;
2020/06/20 15:37:25;;;;;;;3.5;3.25;;;;;;;18.88;98.21875;95663.03;;;;
2020/06/20 15:38:25;;;;;;;3.5;3.25;;;;;;;18.88;98.21875;95663.03;;;;
2020/06/20 15:39:28;;;;;;;3.5;3.25;;;;;;;18.88;98.21875;95663.03;;;;
2020/06/20 15:40:28;;;;;;;3.5;3.25;;;;;;;18.88;98.21875;95663.03;;;;
2020/06/20 15:41:29;;;;;;;3.5;3.25;;;;;;;18.88;98.21875;95663.03;;;;
2020/06/20 15:42:29;;;;;;;5.15;4.65;;;;;;;18.75;98.90625;95655.27;;;;
2020/06/20 15:43:29;;;;;;;5.15;4.65;;;;;;;18.75;98.90625;95655.27;;;;
2020/06/20 15:44:30;;;;;;;5.15;4.65;;;;;;;18.75;98.90625;95655.27;;;;
2020/06/20 15:45:30;;;;;;;5.15;4.65;;;;;;;18.75;98.90625;95655.27;;;;
2020/06/20 15:46:31;;;;;;;5.15;4.65;;;;;;;18.75;98.90625;95655.27;;;;
2020/06/20 15:47:31;;;;;;;5.15;4.65;;;;;;;18.75;98.90625;95655.27;;;;
2020/06/20 15:48:32;;;;;;;5.15;4.65;;;;;;;18.75;98.90625;95655.27;;;;
2020/06/20 15:49:32;;;;;;;5.15;4.65;;;;;;;18.75;98.90625;95655.27;;;;
2020/06/20 15:50:33;;;;;;;5.15;4.65;;;;;;;18.75;98.90625;95655.27;;;;
2020/06/20 15:51:33;;;;;;;5.15;4.65;;;;;;;18.75;98.90625;95655.27;;;;
2020/06/20 15:52:34;;;;;;;5.15;4.65;;;;;;;18.75;98.90625;95655.27;;;;
2020/06/20 15:53:34;;;;;;;3.95;3.4;;;;;;;18.78;99.35645;95650.19;;;;
2020/06/20 15:54:35;;;;;;;3.95;3.4;;;;;;;18.78;99.35645;95650.19;;;;
2020/06/20 15:55:35;;;;;;;3.95;3.4;;;;;;;18.78;99.35645;95650.19;;;;
2020/06/20 15:56:36;;;;;;;3.95;3.4;;;;;;;18.78;99.35645;95650.19;;;;
2020/06/20 15:57:36;;;;;;;3.95;3.4;;;;;;;18.78;99.35645;95650.19;;;;
2020/06/20 15:58:37;;;;;;;3.95;3.4;;;;;;;18.78;99.35645;95650.19;;;;
2020/06/20 15:59:37;;;;;;;3.95;3.4;;;;;;;18.78;99.35645;95650.19;;;;
2020/06/20 16:00:37;;;;;;;3.95;3.4;;;;;;;18.78;99.35645;95650.19;;;;
2020/06/20 16:01:38;;;;;;;3.95;3.4;;;;;;;18.78;99.35645;95650.19;;;;
2020/06/20 16:02:38;;;;;;;3.95;3.4;;;;;;;18.78;99.35645;95650.19;;;;
2020/06/20 16:03:39;;;;;;;3.15;2.8;;;;;;;20.38;100;95649.58;;;;
2020/06/20 16:04:39;;;;;;;3.15;2.8;;;;;;;20.38;100;95649.58;;;;
2020/06/20 16:05:40;;;;;;;3.15;2.8;;;;;;;20.38;100;95649.58;;;;
2020/06/20 16:06:40;;;;;;;3.15;2.8;;;;;;;20.38;100;95649.58;;;;
2020/06/20 16:07:41;;;;;;;3.15;2.8;;;;;;;20.38;100;95649.58;;;;
2020/06/20 16:08:41;;;;;;;3.15;2.8;;;;;;;20.38;100;95649.58;;;;
2020/06/20 16:09:42;;;;;;;3.15;2.8;;;;;;;20.38;100;95649.58;;;;
2020/06/20 16:10:42;;;;;;;3.15;2.8;;;;;;;20.38;100;95649.58;;;;
2020/06/20 16:11:43;;;;;;;3.15;2.8;;;;;;;20.38;100;95649.58;;;;
2020/06/20 16:12:43;;;;;;;3.15;2.8;;;;;;;20.38;100;95649.58;;;;
2020/06/20 16:13:44;;;;;;;3.15;2.8;;;;;;;20.38;100;95649.58;;;;
2020/06/20 16:14:44;;;;;;;4.3;3.9;;;;;;;20.72;98.3291;95657.62;;;;
2020/06/20 16:15:45;;;;;;;4.3;3.9;;;;;;;20.72;98.3291;95657.62;;;;
2020/06/20 16:16:45;;;;;;;4.3;3.9;;;;;;;20.72;98.3291;95657.62;;;;
2020/06/20 16:17:45;;;;;;;4.3;3.9;;;;;;;20.72;98.3291;95657.62;;;;
2020/06/20 16:18:46;;;;;;;4.3;3.9;;;;;;;20.72;98.3291;95657.62;;;;
2020/06/20 16:19:47;;;;;;;4.3;3.9;;;;;;;20.72;98.3291;95657.62;;;;
2020/06/20 16:20:47;;;;;;;4.3;3.9;;;;;;;20.72;98.3291;95657.62;;;;
2020/06/20 16:21:47;;;;;;;4.3;3.9;;;;;;;20.72;98.3291;95657.62;;;;
2020/06/20 16:22:48;;;;;;;4.3;3.9;;;;;;;20.72;98.3291;95657.62;;;;
2020/06/20 16:23:49;;;;;;;4.3;3.9;;;;;;;20.72;98.3291;95657.62;;;;
2020/06/20 16:24:49;;;;;;;3.2;2.900001;;;;;;;20.08;97.39844;95649.66;;;;
2020/06/20 16:25:49;;;;;;;3.2;2.900001;;;;;;;20.08;97.39844;95649.66;;;;
2020/06/20 16:26:50;;;;;;;3.2;2.900001;;;;;;;20.08;97.39844;95649.66;;;;
2020/06/20 16:27:50;;;;;;;3.2;2.900001;;;;;;;20.08;97.39844;95649.66;;;;
2020/06/20 16:28:51;;;;;;;3.2;2.900001;;;;;;;20.08;97.39844;95649.66;;;;
2020/06/20 16:29:51;;;;;;;3.2;2.900001;;;;;;;20.08;97.39844;95649.66;;;;
2020/06/20 16:30:52;;;;;;;3.2;2.900001;;;;;;;20.08;97.39844;95649.66;;;;
2020/06/20 16:31:52;;;;;;;3.2;2.900001;;;;;;;20.08;97.39844;95649.66;;;;
2020/06/20 16:32:53;;;;;;;3.2;2.900001;;;;;;;20.08;97.39844;95649.66;;;;
2020/06/20 16:33:53;;;;;;;3.2;2.900001;;;;;;;20.08;97.39844;95649.66;;;;
2020/06/20 16:34:54;;;;;;;3.2;2.900001;;;;;;;20.08;97.39844;95649.66;;;;
2020/06/20 16:35:54;;;;;;;4.4;3.95;;;;;;;19.15;97.39063;95652.94;;;;
2020/06/20 16:36:55;;;;;;;4.4;3.95;;;;;;;19.15;97.39063;95652.94;;;;
2020/06/20 16:37:55;;;;;;;4.4;3.95;;;;;;;19.15;97.39063;95652.94;;;;
2020/06/20 16:38:55;;;;;;;4.4;3.95;;;;;;;19.15;97.39063;95652.94;;;;
2020/06/20 16:39:56;;;;;;;4.4;3.95;;;;;;;19.15;97.39063;95652.94;;;;
2020/06/20 16:40:56;;;;;;;4.4;3.95;;;;;;;19.15;97.39063;95652.94;;;;
2020/06/20 16:41:57;;;;;;;4.4;3.95;;;;;;;19.15;97.39063;95652.94;;;;
2020/06/20 16:42:57;;;;;;;4.4;3.95;;;;;;;19.15;97.39063;95652.94;;;;
2020/06/20 16:43:58;;;;;;;4.4;3.95;;;;;;;19.15;97.39063;95652.94;;;;
2020/06/20 16:44:59;;;;;;;4.4;3.95;;;;;;;19.15;97.39063;95652.94;;;;
2020/06/20 16:45:59;;;;;;;4.4;4;;;;;;;18.22;98.625;95643.97;;;;
2020/06/20 16:46:59;;;;;;;4.4;4;;;;;;;18.22;98.625;95643.97;;;;
2020/06/20 16:48:00;;;;;;;4.4;4;;;;;;;18.22;98.625;95643.97;;;;
2020/06/20 16:49:00;;;;;;;4.4;4;;;;;;;18.22;98.625;95643.97;;;;
2020/06/20 16:50:01;;;;;;;4.4;4;;;;;;;18.22;98.625;95643.97;;;;
2020/06/20 16:51:02;;;;;;;4.4;4;;;;;;;18.22;98.625;95643.97;;;;
2020/06/20 16:52:03;;;;;;;4.4;4;;;;;;;18.22;98.625;95643.97;;;;
2020/06/20 16:53:03;;;;;;;4.4;4;;;;;;;18.22;98.625;95643.97;;;;
2020/06/20 16:54:04;;;;;;;4.4;4;;;;;;;18.22;98.625;95643.97;;;;
2020/06/20 16:55:04;;;;;;;4.4;4;;;;;;;18.22;98.625;95643.97;;;;
2020/06/20 16:56:05;;;;;;;4.4;4;;;;;;;18.22;98.625;95643.97;;;;
2020/06/20 16:57:05;;;;;;;3.6;3.3;;;;;;;17.54;99.82422;95635.86;;;;
2020/06/20 16:58:06;;;;;;;3.6;3.3;;;;;;;17.54;99.82422;95635.86;;;;
2020/06/20 16:59:06;;;;;;;3.6;3.3;;;;;;;17.54;99.82422;95635.86;;;;
2020/06/20 17:00:07;;;;;;;3.6;3.3;;;;;;;17.54;99.82422;95635.86;;;;
2020/06/20 17:01:09;;;;;;;3.6;3.3;;;;;;;17.54;99.82422;95635.86;;;;
2020/06/20 17:02:09;;;;;;;3.6;3.3;;;;;;;17.54;99.82422;95635.86;;;;
2020/06/20 17:03:10;;;;;;;3.6;3.3;;;;;;;17.54;99.82422;95635.86;;;;
2020/06/20 17:04:10;;;;;;;3.6;3.3;;;;;;;17.54;99.82422;95635.86;;;;
2020/06/20 17:05:10;;;;;;;3.6;3.3;;;;;;;17.54;99.82422;95635.86;;;;
2020/06/20 17:06:11;;;;;;;3.6;3.3;;;;;;;17.54;99.82422;95635.86;;;;
2020/06/20 17:07:11;;;;;;;3.85;3.55;;;;;;;17.1;100;95639.15;;;;
2020/06/20 17:08:12;;;;;;;3.85;3.55;;;;;;;17.1;100;95639.15;;;;
2020/06/20 17:09:12;;;;;;;3.85;3.55;;;;;;;17.1;100;95639.15;;;;
2020/06/20 17:10:13;;;;;;;3.85;3.55;;;;;;;17.1;100;95639.15;;;;
2020/06/20 17:11:13;;;;;;;3.85;3.55;;;;;;;17.1;100;95639.15;;;;
2020/06/20 17:12:14;;;;;;;3.85;3.55;;;;;;;17.1;100;95639.15;;;;
2020/06/20 17:13:14;;;;;;;3.85;3.55;;;;;;;17.1;100;95639.15;;;;
2020/06/20 17:14:15;;;;;;;3.85;3.55;;;;;;;17.1;100;95639.15;;;;
2020/06/20 17:15:15;;;;;;;3.85;3.55;;;;;;;17.1;100;95639.15;;;;
2020/06/20 17:16:16;;;;;;;3.85;3.55;;;;;;;17.1;100;95639.15;;;;
2020/06/20 17:17:16;;;;;;;3.85;3.55;;;;;;;17.1;100;95639.15;;;;
2020/06/20 17:18:17;;;;;;;3.55;3.3;;;;;;;16.91;100;95638;;;;
2020/06/20 17:19:17;;;;;;;3.55;3.3;;;;;;;16.91;100;95638;;;;
2020/06/20 17:20:18;;;;;;;3.55;3.3;;;;;;;16.91;100;95638;;;;
2020/06/20 17:21:18;;;;;;;3.55;3.3;;;;;;;16.91;100;95638;;;;
2020/06/20 17:22:19;;;;;;;3.55;3.3;;;;;;;16.91;100;95638;;;;
2020/06/20 17:23:19;;;;;;;3.55;3.3;;;;;;;16.91;100;95638;;;;
2020/06/20 17:24:20;;;;;;;3.55;3.3;;;;;;;16.91;100;95638;;;;
2020/06/20 17:25:20;;;;;;;3.55;3.3;;;;;;;16.91;100;95638;;;;
2020/06/20 17:26:20;;;;;;;3.55;3.3;;;;;;;16.91;100;95638;;;;
2020/06/20 17:27:21;;;;;;;3.55;3.3;;;;;;;16.91;100;95638;;;;
2020/06/20 17:28:21;;;;;;;3.55;3.3;;;;;;;16.91;100;95638;;;;
2020/06/20 17:29:22;;;;;;;4;3.5;;;;;;;16.62;100;95626.65;;;;
2020/06/20 17:30:22;;;;;;;4;3.5;;;;;;;16.62;100;95626.65;;;;
2020/06/20 17:31:23;;;;;;;4;3.5;;;;;;;16.62;100;95626.65;;;;
2020/06/20 17:32:23;;;;;;;4;3.5;;;;;;;16.62;100;95626.65;;;;
2020/06/20 17:33:24;;;;;;;4;3.5;;;;;;;16.62;100;95626.65;;;;
2020/06/20 17:34:24;;;;;;;4;3.5;;;;;;;16.62;100;95626.65;;;;
2020/06/20 17:35:25;;;;;;;4;3.5;;;;;;;16.62;100;95626.65;;;;
2020/06/20 17:36:25;;;;;;;4;3.5;;;;;;;16.62;100;95626.65;;;;
2020/06/20 17:37:25;;;;;;;4;3.5;;;;;;;16.62;100;95626.65;;;;
2020/06/20 17:38:26;;;;;;;4;3.5;;;;;;;16.62;100;95626.65;;;;
2020/06/20 17:39:26;;;;;;;4.45;3.75;;;;;;;16.4;100;95627.34;;;;
2020/06/20 17:40:27;;;;;;;4.45;3.75;;;;;;;16.4;100;95627.34;;;;
2020/06/20 17:41:27;;;;;;;4.45;3.75;;;;;;;16.4;100;95627.34;;;;
2020/06/20 17:42:28;;;;;;;4.45;3.75;;;;;;;16.4;100;95627.34;;;;
2020/06/20 17:43:28;;;;;;;4.45;3.75;;;;;;;16.4;100;95627.34;;;;
2020/06/20 17:44:29;;;;;;;4.45;3.75;;;;;;;16.4;100;95627.34;;;;
2020/06/20 17:45:29;;;;;;;4.45;3.75;;;;;;;16.4;100;95627.34;;;;
2020/06/20 17:46:30;;;;;;;4.45;3.75;;;;;;;16.4;100;95627.34;;;;
2020/06/20 17:47:30;;;;;;;4.45;3.75;;;;;;;16.4;100;95627.34;;;;
2020/06/20 17:48:31;;;;;;;4.45;3.75;;;;;;;16.4;100;95627.34;;;;
2020/06/20 17:49:31;;;;;;;4.45;3.75;;;;;;;16.4;100;95627.34;;;;
2020/06/20 17:50:32;;;;;;;3.85;3.55;;;;;;;16.19;100;95622.82;;;;
2020/06/20 17:51:32;;;;;;;3.85;3.55;;;;;;;16.19;100;95622.82;;;;
2020/06/20 17:52:33;;;;;;;3.85;3.55;;;;;;;16.19;100;95622.82;;;;
2020/06/20 17:53:33;;;;;;;3.85;3.55;;;;;;;16.19;100;95622.82;;;;
2020/06/20 17:54:34;;;;;;;3.85;3.55;;;;;;;16.19;100;95622.82;;;;
2020/06/20 17:55:34;;;;;;;3.85;3.55;;;;;;;16.19;100;95622.82;;;;
2020/06/20 17:56:35;;;;;;;3.85;3.55;;;;;;;16.19;100;95622.82;;;;
2020/06/20 17:57:35;;;;;;;3.85;3.55;;;;;;;16.19;100;95622.82;;;;
2020/06/20 17:58:35;;;;;;;3.85;3.55;;;;;;;16.19;100;95622.82;;;;
2020/06/20 17:59:36;;;;;;;3.85;3.55;;;;;;;16.19;100;95622.82;;;;
2020/06/20 18:00:36;;;;;;;3.4;3.1;;;;;;;16.12;100;95624.01;;;;
2020/06/20 18:01:37;;;;;;;3.4;3.1;;;;;;;16.12;100;95624.01;;;;
2020/06/20 18:02:37;;;;;;;3.4;3.1;;;;;;;16.12;100;95624.01;;;;
2020/06/20 18:03:38;;;;;;;3.4;3.1;;;;;;;16.12;100;95624.01;;;;
2020/06/20 18:04:38;;;;;;;3.4;3.1;;;;;;;16.12;100;95624.01;;;;
2020/06/20 18:05:39;;;;;;;3.4;3.1;;;;;;;16.12;100;95624.01;;;;
2020/06/20 18:06:39;;;;;;;3.4;3.1;;;;;;;16.12;100;95624.01;;;;
2020/06/20 18:07:40;;;;;;;3.4;3.1;;;;;;;16.12;100;95624.01;;;;
2020/06/20 18:08:40;;;;;;;3.4;3.1;;;;;;;16.12;100;95624.01;;;;
2020/06/20 18:09:41;;;;;;;3.4;3.1;;;;;;;16.12;100;95624.01;;;;
2020/06/20 18:10:41;;;;;;;3.4;3.1;;;;;;;16.12;100;95624.01;;;;
2020/06/20 18:11:42;;;;;;;3.299999;3;;;;;;;15.99;100;95615.48;;;;
2020/06/20 18:12:43;;;;;;;3.299999;3;;;;;;;15.99;100;95615.48;;;;
2020/06/20 18:13:43;;;;;;;3.299999;3;;;;;;;15.99;100;95615.48;;;;
2020/06/20 18:14:44;;;;;;;3.299999;3;;;;;;;15.99;100;95615.48;;;;
2020/06/20 18:15:44;;;;;;;3.299999;3;;;;;;;15.99;100;95615.48;;;;
2020/06/20 18:16:44;;;;;;;3.299999;3;;;;;;;15.99;100;95615.48;;;;
2020/06/20 18:17:45;;;;;;;3.299999;3;;;;;;;15.99;100;95615.48;;;;
2020/06/20 18:18:45;;;;;;;3.299999;3;;;;;;;15.99;100;95615.48;;;;
2020/06/20 18:19:46;;;;;;;3.299999;3;;;;;;;15.99;100;95615.48;;;;
2020/06/20 18:20:46;;;;;;;3.299999;3;;;;;;;15.99;100;95615.48;;;;
2020/06/20 18:21:47;;;;;;;2.7;2.5;;;;;;;15.9;100;95617.05;;;;
2020/06/20 18:22:47;;;;;;;2.7;2.5;;;;;;;15.9;100;95617.05;;;;
2020/06/20 18:23:48;;;;;;;2.7;2.5;;;;;;;15.9;100;95617.05;;;;
2020/06/20 18:24:48;;;;;;;2.7;2.5;;;;;;;15.9;100;95617.05;;;;
2020/06/20 18:25:49;;;;;;;2.7;2.5;;;;;;;15.9;100;95617.05;;;;
2020/06/20 18:26:51;;;;;;;2.7;2.5;;;;;;;15.9;100;95617.05;;;;
2020/06/20 18:27:51;;;;;;;2.7;2.5;;;;;;;15.9;100;95617.05;;;;
2020/06/20 18:28:52;;;;;;;2.7;2.5;;;;;;;15.9;100;95617.05;;;;
2020/06/20 18:29:52;;;;;;;2.7;2.5;;;;;;;15.9;100;95617.05;;;;
2020/06/20 18:30:53;;;;;;;2.7;2.5;;;;;;;15.9;100;95617.05;;;;
2020/06/20 18:31:53;;;;;;;2.7;2.5;;;;;;;15.9;100;95617.05;;;;
2020/06/20 18:32:54;;;;;;;3.100001;2.5;;;;;;;15.7;100;95620.42;;;;
2020/06/20 18:33:54;;;;;;;3.100001;2.5;;;;;;;15.7;100;95620.42;;;;
2020/06/20 18:34:54;;;;;;;3.100001;2.5;;;;;;;15.7;100;95620.42;;;;
2020/06/20 18:35:55;;;;;;;3.100001;2.5;;;;;;;15.7;100;95620.42;;;;
2020/06/20 18:36:55;;;;;;;3.100001;2.5;;;;;;;15.7;100;95620.42;;;;
2020/06/20 18:37:56;;;;;;;3.100001;2.5;;;;;;;15.7;100;95620.42;;;;
2020/06/20 18:38:56;;;;;;;3.100001;2.5;;;;;;;15.7;100;95620.42;;;;
2020/06/20 18:39:57;;;;;;;3.100001;2.5;;;;;;;15.7;100;95620.42;;;;
2020/06/20 18:40:57;;;;;;;3.100001;2.5;;;;;;;15.7;100;95620.42;;;;
2020/06/20 18:41:58;;;;;;;3.100001;2.5;;;;;;;15.7;100;95620.42;;;;
2020/06/20 18:42:58;;;;;;;2.95;2.65;;;;;;;15.52;100;95627.61;;;;
2020/06/20 18:43:59;;;;;;;2.95;2.65;;;;;;;15.52;100;95627.61;;;;
2020/06/20 18:44:59;;;;;;;2.95;2.65;;;;;;;15.52;100;95627.61;;;;
2020/06/20 18:45:59;;;;;;;2.95;2.65;;;;;;;15.52;100;95627.61;;;;
2020/06/20 18:47:00;;;;;;;2.95;2.65;;;;;;;15.52;100;95627.61;;;;
2020/06/20 18:48:00;;;;;;;2.95;2.65;;;;;;;15.52;100;95627.61;;;;
2020/06/20 18:49:01;;;;;;;2.95;2.65;;;;;;;15.52;100;95627.61;;;;
2020/06/20 18:50:01;;;;;;;2.95;2.65;;;;;;;15.52;100;95627.61;;;;
2020/06/20 18:51:03;;;;;;;2.95;2.65;;;;;;;15.52;100;95627.61;;;;
2020/06/20 18:52:03;;;;;;;2.95;2.65;;;;;;;15.52;100;95627.61;;;;
2020/06/20 18:53:04;;;;;;;2.95;2.65;;;;;;;15.52;100;95627.61;;;;
2020/06/20 18:54:04;;;;;;;2.7;2.5;;;;;;;15.28;100;95631.16;;;;
2020/06/20 18:55:36;;;;;;;2.7;2.5;;;;;;;15.28;100;95631.16;;;;
2020/06/20 18:57:18;;;;;;;2.7;2.5;;;;;;;15.28;100;95631.16;;;;
2020/06/20 18:58:19;;;;;;;2.7;2.5;;;;;;;15.28;100;95631.16;;;;
2020/06/20 18:59:19;;;;;;;2.7;2.5;;;;;;;15.28;100;95631.16;;;;
2020/06/20 19:00:20;;;;;;;2.7;2.5;;;;;;;15.28;100;95631.16;;;;
2020/06/20 19:01:21;;;;;;;2.7;2.5;;;;;;;15.28;100;95631.16;;;;
2020/06/20 19:02:23;;;;;;;2.7;2.5;;;;;;;15.28;100;95631.16;;;;
2020/06/20 19:03:23;;;;;;;2.7;2.5;;;;;;;15.28;100;95631.16;;;;
2020/06/20 19:04:24;;;;;;;3.3;3;;;;;;;15.14;100;95629.08;;;;
2020/06/20 19:05:24;;;;;;;3.3;3;;;;;;;15.14;100;95629.08;;;;
2020/06/20 19:06:27;;;;;;;3.3;3;;;;;;;15.14;100;95629.08;;;;
2020/06/20 19:07:27;;;;;;;3.3;3;;;;;;;15.14;100;95629.08;;;;
2020/06/20 19:08:28;;;;;;;3.3;3;;;;;;;15.14;100;95629.08;;;;
2020/06/20 19:09:28;;;;;;;3.3;3;;;;;;;15.14;100;95629.08;;;;
2020/06/20 19:10:29;;;;;;;3.3;3;;;;;;;15.14;100;95629.08;;;;
2020/06/20 19:11:29;;;;;;;3.3;3;;;;;;;15.14;100;95629.08;;;;
2020/06/20 19:12:30;;;;;;;3.3;3;;;;;;;15.14;100;95629.08;;;;
2020/06/20 19:13:30;;;;;;;3.3;3;;;;;;;15.14;100;95629.08;;;;
2020/06/20 19:14:31;;;;;;;2.75;2.55;;;;;;;14.91;100;95627.87;;;;
2020/06/20 19:15:31;;;;;;;2.75;2.55;;;;;;;14.91;100;95627.87;;;;
2020/06/20 19:16:32;;;;;;;2.75;2.55;;;;;;;14.91;100;95627.87;;;;
2020/06/20 19:17:33;;;;;;;2.75;2.55;;;;;;;14.91;100;95627.87;;;;
2020/06/20 19:18:33;;;;;;;2.75;2.55;;;;;;;14.91;100;95627.87;;;;
2020/06/20 19:19:34;;;;;;;2.75;2.55;;;;;;;14.91;100;95627.87;;;;
2020/06/20 19:20:34;;;;;;;2.75;2.55;;;;;;;14.91;100;95627.87;;;;
2020/06/20 19:21:35;;;;;;;2.75;2.55;;;;;;;14.91;100;95627.87;;;;
2020/06/20 19:22:35;;;;;;;2.75;2.55;;;;;;;14.91;100;95627.87;;;;
2020/06/20 19:23:36;;;;;;;2.75;2.55;;;;;;;14.91;100;95627.87;;;;
2020/06/20 19:24:37;;;;;;;2.75;2.55;;;;;;;14.91;100;95627.87;;;;
2020/06/20 19:25:37;;;;;;;3.3;3;;;;;;;14.78;100;95633.72;;;;
2020/06/20 19:26:37;;;;;;;3.3;3;;;;;;;14.78;100;95633.72;;;;
2020/06/20 19:27:38;;;;;;;3.3;3;;;;;;;14.78;100;95633.72;;;;
2020/06/20 19:28:39;;;;;;;3.3;3;;;;;;;14.78;100;95633.72;;;;
2020/06/20 19:29:39;;;;;;;3.3;3;;;;;;;14.78;100;95633.72;;;;
2020/06/20 19:30:39;;;;;;;3.3;3;;;;;;;14.78;100;95633.72;;;;
2020/06/20 19:31:40;;;;;;;3.3;3;;;;;;;14.78;100;95633.72;;;;
2020/06/20 19:32:40;;;;;;;3.3;3;;;;;;;14.78;100;95633.72;;;;
2020/06/20 19:33:41;;;;;;;3.3;3;;;;;;;14.78;100;95633.72;;;;
2020/06/20 19:34:41;;;;;;;3.3;3;;;;;;;14.78;100;95633.72;;;;
2020/06/20 19:35:42;;;;;;;4.1;2.85;;;;;;;14.65;100;95650.81;;;;
2020/06/20 19:36:42;;;;;;;4.1;2.85;;;;;;;14.65;100;95650.81;;;;
2020/06/20 19:37:42;;;;;;;4.1;2.85;;;;;;;14.65;100;95650.81;;;;
2020/06/20 19:38:43;;;;;;;4.1;2.85;;;;;;;14.65;100;95650.81;;;;
2020/06/20 19:39:43;;;;;;;4.1;2.85;;;;;;;14.65;100;95650.81;;;;
2020/06/20 19:40:44;;;;;;;4.1;2.85;;;;;;;14.65;100;95650.81;;;;
2020/06/20 19:41:44;;;;;;;4.1;2.85;;;;;;;14.65;100;95650.81;;;;
2020/06/20 19:42:45;;;;;;;4.1;2.85;;;;;;;14.65;100;95650.81;;;;
2020/06/20 19:43:45;;;;;;;4.1;2.85;;;;;;;14.65;100;95650.81;;;;
2020/06/20 19:44:46;;;;;;;4.1;2.85;;;;;;;14.65;100;95650.81;;;;
2020/06/20 19:45:46;;;;;;;4.1;2.85;;;;;;;14.65;100;95650.81;;;;
2020/06/20 19:46:47;;;;;;;3.6;3.3;;;;;;;14.57;100;95651.23;;;;
2020/06/20 19:47:47;;;;;;;3.6;3.3;;;;;;;14.57;100;95651.23;;;;
2020/06/20 19:48:47;;;;;;;3.6;3.3;;;;;;;14.57;100;95651.23;;;;
2020/06/20 19:49:48;;;;;;;3.6;3.3;;;;;;;14.57;100;95651.23;;;;
2020/06/20 19:50:48;;;;;;;3.6;3.3;;;;;;;14.57;100;95651.23;;;;
2020/06/20 19:51:49;;;;;;;3.6;3.3;;;;;;;14.57;100;95651.23;;;;
2020/06/20 19:52:49;;;;;;;3.6;3.3;;;;;;;14.57;100;95651.23;;;;
2020/06/20 19:53:50;;;;;;;3.6;3.3;;;;;;;14.57;100;95651.23;;;;
2020/06/20 19:54:50;;;;;;;3.6;3.3;;;;;;;14.57;100;95651.23;;;;
2020/06/20 19:55:51;;;;;;;3.6;3.3;;;;;;;14.57;100;95651.23;;;;
2020/06/20 19:56:51;;;;;;;3.6;3.3;;;;;;;14.57;100;95651.23;;;;
2020/06/20 19:57:52;;;;;;;3.2;3;;;;;;;14.46;100;95658.95;;;;
2020/06/20 19:58:52;;;;;;;3.2;3;;;;;;;14.46;100;95658.95;;;;
2020/06/20 19:59:53;;;;;;;3.2;3;;;;;;;14.46;100;95658.95;;;;
2020/06/20 20:00:54;;;;;;;3.2;3;;;;;;;14.46;100;95658.95;;;;
2020/06/20 20:01:54;;;;;;;3.2;3;;;;;;;14.46;100;95658.95;;;;
2020/06/20 20:02:54;;;;;;;3.2;3;;;;;;;14.46;100;95658.95;;;;
2020/06/20 20:03:55;;;;;;;3.2;3;;;;;;;14.46;100;95658.95;;;;
2020/06/20 20:04:55;;;;;;;3.2;3;;;;;;;14.46;100;95658.95;;;;
2020/06/20 20:05:56;;;;;;;3.2;3;;;;;;;14.46;100;95658.95;;;;
2020/06/20 20:06:56;;;;;;;3.2;3;;;;;;;14.46;100;95658.95;;;;
2020/06/20 20:07:56;;;;;;;4.300001;3.35;;;;;;;14.39;100;95659.81;;;;
2020/06/20 20:08:57;;;;;;;4.300001;3.35;;;;;;;14.39;100;95659.81;;;;
2020/06/20 20:09:57;;;;;;;4.300001;3.35;;;;;;;14.39;100;95659.81;;;;
2020/06/20 20:10:58;;;;;;;4.300001;3.35;;;;;;;14.39;100;95659.81;;;;
2020/06/20 20:11:58;;;;;;;4.300001;3.35;;;;;;;14.39;100;95659.81;;;;
2020/06/20 20:12:59;;;;;;;4.300001;3.35;;;;;;;14.39;100;95659.81;;;;
2020/06/20 20:14:00;;;;;;;4.300001;3.35;;;;;;;14.39;100;95659.81;;;;
2020/06/20 20:15:00;;;;;;;4.300001;3.35;;;;;;;14.39;100;95659.81;;;;
2020/06/20 20:16:00;;;;;;;4.300001;3.35;;;;;;;14.39;100;95659.81;;;;
2020/06/20 20:17:01;;;;;;;4.300001;3.35;;;;;;;14.39;100;95659.81;;;;